createdAt,value
2023-04-25T00:00:58.396Z,7.40
2023-04-25T00:03:26.124Z,7.50
2023-04-25T00:05:53.365Z,7.50
2023-04-25T00:08:20.755Z,7.50
2023-04-25T00:10:47.742Z,7.40
2023-04-25T00:13:15.534Z,7.40
2023-04-25T00:15:42.723Z,7.50
2023-04-25T00:18:09.818Z,7.50
2023-04-25T00:20:37.061Z,7.50
2023-04-25T00:23:04.083Z,7.50
2023-04-25T00:25:31.121Z,7.50
2023-04-25T00:27:58.085Z,7.50
2023-04-25T00:30:25.141Z,7.50
2023-04-25T00:32:52.200Z,7.50
2023-04-25T00:35:19.285Z,7.60
2023-04-25T00:37:46.445Z,7.60
2023-04-25T00:40:13.462Z,7.60
2023-04-25T00:42:40.630Z,7.60
2023-04-25T00:45:08.468Z,7.50
2023-04-25T00:47:36.013Z,7.50
2023-04-25T00:50:03.041Z,7.50
2023-04-25T00:52:30.081Z,7.50
2023-04-25T00:54:57.033Z,7.50
2023-04-25T00:57:24.004Z,7.50
2023-04-25T00:59:51.038Z,7.50
2023-04-25T01:02:18.139Z,7.40
2023-04-25T01:04:45.135Z,7.40
2023-04-25T01:07:12.085Z,7.40
2023-04-25T01:09:39.039Z,7.40
2023-04-25T01:12:06.092Z,7.40
2023-04-25T01:14:33.057Z,7.40
2023-04-25T01:17:00.261Z,7.30
2023-04-25T01:19:27.423Z,7.30
2023-04-25T01:21:54.400Z,7.30
2023-04-25T01:24:21.532Z,7.30
2023-04-25T01:26:51.743Z,7.30
2023-04-25T01:29:23.826Z,7.30
2023-04-25T01:31:50.861Z,7.30
2023-04-25T01:34:17.890Z,7.20
2023-04-25T01:36:44.863Z,7.20
2023-04-25T01:39:12.792Z,7.20
2023-04-25T01:41:39.782Z,7.20
2023-04-25T01:44:07.204Z,7.20
2023-04-25T01:46:34.638Z,7.20
2023-04-25T01:49:01.838Z,7.10
2023-04-25T01:51:29.175Z,7.10
2023-04-25T01:53:56.319Z,7.10
2023-04-25T01:56:23.877Z,7.10
2023-04-25T01:58:50.854Z,7.10
2023-04-25T02:01:20.725Z,7.00
2023-04-25T02:04:01.850Z,7.00
2023-04-25T02:06:34.391Z,7.00
2023-04-25T02:09:01.378Z,7.00
2023-04-25T02:11:28.516Z,6.90
2023-04-25T02:14:13.909Z,6.90
2023-04-25T02:16:47.623Z,6.90
2023-04-25T02:19:14.660Z,7.00
2023-04-25T02:21:41.721Z,6.90
2023-04-25T02:24:08.878Z,6.90
2023-04-25T02:26:35.859Z,6.90
2023-04-25T02:29:02.882Z,6.90
2023-04-25T02:31:29.942Z,6.90
2023-04-25T02:33:58.619Z,6.90
2023-04-25T02:36:25.659Z,6.90
2023-04-25T02:38:52.892Z,6.90
2023-04-25T02:41:21.738Z,6.90
2023-04-25T02:43:49.172Z,6.90
2023-04-25T02:46:25.428Z,6.90
2023-04-25T02:49:00.843Z,6.90
2023-04-25T02:51:27.808Z,6.90
2023-04-25T02:53:54.814Z,6.90
2023-04-25T02:56:21.833Z,6.90
2023-04-25T02:58:49.296Z,6.90
2023-04-25T03:01:16.286Z,6.90
2023-04-25T03:03:43.360Z,6.90
2023-04-25T03:06:10.499Z,6.90
2023-04-25T03:08:37.816Z,7.00
2023-04-25T03:11:04.908Z,6.90
2023-04-25T03:13:31.880Z,7.00
2023-04-25T03:15:59.738Z,7.00
2023-04-25T03:18:26.809Z,7.00
2023-04-25T03:20:55.369Z,7.00
2023-04-25T03:23:22.506Z,7.00
2023-04-25T03:25:49.740Z,7.00
2023-04-25T03:28:16.804Z,7.00
2023-04-25T03:30:44.139Z,7.00
2023-04-25T03:33:11.281Z,7.00
2023-04-25T03:35:38.537Z,6.90
2023-04-25T03:38:05.758Z,6.90
2023-04-25T03:40:37.853Z,6.90
2023-04-25T03:43:34.074Z,6.90
2023-04-25T03:46:05.717Z,6.90
2023-04-25T03:48:32.754Z,6.90
2023-04-25T03:50:59.921Z,6.80
2023-04-25T03:53:26.949Z,6.80
2023-04-25T03:56:12.560Z,6.80
2023-04-25T03:58:40.576Z,6.80
2023-04-25T04:01:08.804Z,6.70
2023-04-25T04:03:38.392Z,6.70
2023-04-25T04:06:06.668Z,6.70
2023-04-25T04:08:37.100Z,6.70
2023-04-25T04:11:04.162Z,6.70
2023-04-25T04:13:31.450Z,6.70
2023-04-25T04:15:58.836Z,6.70
2023-04-25T04:18:25.856Z,6.70
2023-04-25T04:20:53.869Z,6.60
2023-04-25T04:23:21.610Z,6.70
2023-04-25T04:25:48.899Z,6.60
2023-04-25T04:28:18.785Z,6.60
2023-04-25T04:30:53.371Z,6.60
2023-04-25T04:33:20.565Z,6.60
2023-04-25T04:35:53.099Z,6.60
2023-04-25T04:38:20.698Z,6.60
2023-04-25T04:40:48.624Z,6.70
2023-04-25T04:43:25.063Z,6.70
2023-04-25T04:46:04.353Z,6.70
2023-04-25T04:48:52.527Z,6.70
2023-04-25T04:51:39.008Z,6.70
2023-04-25T04:54:36.471Z,6.70
2023-04-25T04:57:17.473Z,6.70
2023-04-25T05:00:22.886Z,6.70
2023-04-25T05:02:56.446Z,6.70
2023-04-25T05:05:42.195Z,6.70
2023-04-25T05:08:31.613Z,6.70
2023-04-25T05:11:17.050Z,6.80
2023-04-25T05:14:10.382Z,6.70
2023-04-25T05:16:54.799Z,6.70
2023-04-25T05:19:31.534Z,6.70
2023-04-25T05:22:21.532Z,6.70
2023-04-25T05:25:12.803Z,6.70
2023-04-25T05:27:53.308Z,6.70
2023-04-25T05:30:43.238Z,6.70
2023-04-25T05:33:15.570Z,6.70
2023-04-25T05:35:42.821Z,6.70
2023-04-25T05:38:11.452Z,6.70
2023-04-25T05:41:04.400Z,6.70
2023-04-25T05:43:57.124Z,6.70
2023-04-25T05:46:29.712Z,6.70
2023-04-25T05:49:12.690Z,6.80
2023-04-25T05:51:56.783Z,6.70
2023-04-25T05:54:36.336Z,6.80
2023-04-25T05:57:03.669Z,6.80
2023-04-25T05:59:31.094Z,6.80
2023-04-25T06:01:58.377Z,6.80
2023-04-25T06:04:26.205Z,6.80
2023-04-25T06:06:54.930Z,6.70
2023-04-25T06:09:23.344Z,6.70
2023-04-25T06:11:50.475Z,6.60
2023-04-25T06:14:19.632Z,6.60
2023-04-25T06:16:49.936Z,6.50
2023-04-25T06:19:16.931Z,6.50
2023-04-25T06:21:44.294Z,6.50
2023-04-25T06:24:11.309Z,6.40
2023-04-25T06:26:38.326Z,6.40
2023-04-25T06:29:06.047Z,6.40
2023-04-25T06:31:34.713Z,6.40
2023-04-25T06:34:01.835Z,6.50
2023-04-25T06:36:31.332Z,6.50
2023-04-25T06:39:04.749Z,6.50
2023-04-25T06:41:33.556Z,6.50
2023-04-25T06:44:02.945Z,6.50
2023-04-25T06:46:37.183Z,6.60
2023-04-25T06:49:04.940Z,6.80
2023-04-25T06:51:32.321Z,7.00
2023-04-25T06:53:59.737Z,7.20
2023-04-25T06:56:32.246Z,7.50
2023-04-25T06:59:19.449Z,7.60
2023-04-25T07:01:46.896Z,7.80
2023-04-25T07:04:21.043Z,7.90
2023-04-25T07:06:55.909Z,8.00
2023-04-25T07:09:49.064Z,8.00
2023-04-25T07:12:16.161Z,7.90
2023-04-25T07:14:44.252Z,7.80
2023-04-25T07:17:13.760Z,7.70
2023-04-25T07:19:41.255Z,7.60
2023-04-25T07:22:09.411Z,7.50
2023-04-25T07:24:39.168Z,7.40
2023-04-25T07:27:07.076Z,7.40
2023-04-25T07:29:54.575Z,7.40
2023-04-25T07:32:23.770Z,7.40
2023-04-25T07:34:54.105Z,7.50
2023-04-25T07:37:21.269Z,7.60
2023-04-25T07:40:04.733Z,7.70
2023-04-25T07:42:32.270Z,7.80
2023-04-25T07:44:59.641Z,7.80
2023-04-25T07:47:26.967Z,7.90
2023-04-25T07:49:54.082Z,7.90
2023-04-25T07:52:22.376Z,8.10
2023-04-25T07:54:54.594Z,8.30
2023-04-25T07:57:28.587Z,8.60
2023-04-25T07:59:57.540Z,8.80
2023-04-25T08:02:27.065Z,8.90
2023-04-25T08:04:54.259Z,9.10
2023-04-25T08:07:21.425Z,9.20
2023-04-25T08:09:55.814Z,9.30
2023-04-25T08:12:27.210Z,9.50
2023-04-25T08:14:54.254Z,9.60
2023-04-25T08:17:21.493Z,9.60
2023-04-25T08:19:48.620Z,9.60
2023-04-25T08:22:24.009Z,9.40
2023-04-25T08:24:55.729Z,9.30
2023-04-25T08:27:22.932Z,9.20
2023-04-25T08:29:50.125Z,9.10
2023-04-25T08:32:17.983Z,9.00
2023-04-25T08:34:58.096Z,9.00
2023-04-25T08:37:25.217Z,8.90
2023-04-25T08:40:00.471Z,9.00
2023-04-25T08:42:43.260Z,9.10
2023-04-25T08:45:10.551Z,9.40
2023-04-25T08:47:40.530Z,9.60
2023-04-25T08:50:07.948Z,9.70
2023-04-25T08:52:44.027Z,9.60
2023-04-25T08:55:11.928Z,9.60
2023-04-25T08:57:39.321Z,9.60
2023-04-25T09:00:06.787Z,9.60
2023-04-25T09:02:36.677Z,9.80
2023-04-25T09:05:05.198Z,9.90
2023-04-25T09:07:32.413Z,10.00
2023-04-25T09:10:02.981Z,10.20
2023-04-25T09:12:31.846Z,10.20
2023-04-25T09:15:06.868Z,10.10
2023-04-25T09:17:57.794Z,10.00
2023-04-25T09:20:27.591Z,10.10
2023-04-25T09:23:04.167Z,10.10
2023-04-25T09:25:35.273Z,10.10
2023-04-25T09:28:04.518Z,10.00
2023-04-25T09:30:33.361Z,10.00
2023-04-25T09:33:12.282Z,9.90
2023-04-25T09:35:44.327Z,9.90
2023-04-25T09:38:19.148Z,10.10
2023-04-25T09:40:52.644Z,10.30
2023-04-25T09:43:28.766Z,10.50
2023-04-25T09:46:01.545Z,10.50
2023-04-25T09:48:31.008Z,10.50
2023-04-25T09:51:04.804Z,10.50
2023-04-25T09:53:33.053Z,10.60
2023-04-25T09:56:11.384Z,10.80
2023-04-25T09:58:41.124Z,11.00
2023-04-25T10:01:09.207Z,11.30
2023-04-25T10:03:46.240Z,11.40
2023-04-25T10:06:23.390Z,11.40
2023-04-25T10:08:51.888Z,11.40
2023-04-25T10:11:18.921Z,11.40
2023-04-25T10:13:45.921Z,11.50
2023-04-25T10:16:12.945Z,11.70
2023-04-25T10:18:40.101Z,11.80
2023-04-25T10:21:07.761Z,11.90
2023-04-25T10:23:37.890Z,12.10
2023-04-25T10:26:04.933Z,12.10
2023-04-25T10:28:40.460Z,11.90
2023-04-25T10:31:10.739Z,11.70
2023-04-25T10:33:39.606Z,11.60
2023-04-25T10:36:13.122Z,11.40
2023-04-25T10:38:40.284Z,11.20
2023-04-25T10:41:09.314Z,11.00
2023-04-25T10:43:43.112Z,10.80
2023-04-25T10:46:20.696Z,10.60
2023-04-25T10:48:51.464Z,10.30
2023-04-25T10:51:19.577Z,10.20
2023-04-25T10:54:12.902Z,10.00
2023-04-25T10:56:45.328Z,9.90
2023-04-25T10:59:16.455Z,9.90
2023-04-25T11:01:52.255Z,9.90
2023-04-25T11:04:26.816Z,9.80
2023-04-25T11:07:07.154Z,9.80
2023-04-25T11:09:35.448Z,9.80
2023-04-25T11:12:02.467Z,9.90
2023-04-25T11:14:29.754Z,9.90
2023-04-25T11:16:58.894Z,9.90
2023-04-25T11:19:27.389Z,9.70
2023-04-25T11:21:57.775Z,9.60
2023-04-25T11:24:31.369Z,9.60
2023-04-25T11:26:59.026Z,9.50
2023-04-25T11:29:32.483Z,9.40
2023-04-25T11:31:59.637Z,9.40
2023-04-25T11:34:26.967Z,9.40
2023-04-25T11:36:54.176Z,9.50
2023-04-25T11:39:21.191Z,9.60
2023-04-25T11:41:48.250Z,9.60
2023-04-25T11:44:18.548Z,9.60
2023-04-25T11:46:45.635Z,9.60
2023-04-25T11:49:12.868Z,9.60
2023-04-25T11:51:44.097Z,9.50
2023-04-25T11:54:11.324Z,9.40
2023-04-25T11:56:38.592Z,9.20
2023-04-25T11:59:07.143Z,9.10
2023-04-25T12:01:38.513Z,8.90
2023-04-25T12:04:12.826Z,8.80
2023-04-25T12:06:41.190Z,8.70
2023-04-25T12:09:09.185Z,8.60
2023-04-25T12:11:45.787Z,8.60
2023-04-25T12:14:13.224Z,8.60
2023-04-25T12:16:46.544Z,8.60
2023-04-25T12:19:17.025Z,8.60
2023-04-25T12:24:19.094Z,8.50
2023-04-25T12:26:55.575Z,8.40
2023-04-25T12:29:29.478Z,8.40
2023-04-25T12:31:58.770Z,8.40
2023-04-25T12:34:26.078Z,8.40
2023-04-25T12:37:08.930Z,8.50
2023-04-25T12:39:36.069Z,8.60
2023-04-25T12:42:04.323Z,8.60
2023-04-25T12:44:32.202Z,8.60
2023-04-25T12:47:00.916Z,8.70
2023-04-25T12:49:28.290Z,8.70
2023-04-25T12:51:55.545Z,8.80
2023-04-25T12:54:22.581Z,8.70
2023-04-25T12:56:51.226Z,8.70
2023-04-25T12:59:18.847Z,8.70
2023-04-25T13:01:46.421Z,8.60
2023-04-25T13:04:13.862Z,8.60
2023-04-25T13:06:42.184Z,8.50
2023-04-25T13:09:13.337Z,8.40
2023-04-25T13:11:42.421Z,8.40
2023-04-25T13:14:13.292Z,8.30
2023-04-25T13:16:43.707Z,8.30
2023-04-25T13:19:12.532Z,8.20
2023-04-25T13:21:39.670Z,8.20
2023-04-25T13:24:07.246Z,8.20
2023-04-25T13:26:34.527Z,8.20
2023-04-25T13:29:04.606Z,8.10
2023-04-25T13:31:32.418Z,8.10
2023-04-25T13:33:59.695Z,8.10
2023-04-25T13:36:26.924Z,8.00
2023-04-25T13:38:54.006Z,7.90
2023-04-25T13:41:22.522Z,7.80
2023-04-25T13:43:52.917Z,7.90
2023-04-25T13:46:40.800Z,7.90
2023-04-25T13:49:13.413Z,7.80
2023-04-25T13:51:41.402Z,7.80
2023-04-25T13:54:11.260Z,7.80
2023-04-25T13:56:38.488Z,7.80
2023-04-25T13:59:05.623Z,7.90
2023-04-25T14:01:35.208Z,7.80
2023-04-25T14:04:05.373Z,7.90
2023-04-25T14:06:32.954Z,7.80
2023-04-25T14:09:02.039Z,7.80
2023-04-25T14:11:29.195Z,7.70
2023-04-25T14:13:56.612Z,7.70
2023-04-25T14:16:24.356Z,7.60
2023-04-25T14:18:51.814Z,7.60
2023-04-25T14:21:22.007Z,7.60
2023-04-25T14:23:49.521Z,7.60
2023-04-25T14:26:17.356Z,7.70
2023-04-25T14:28:46.672Z,7.70
2023-04-25T14:31:13.854Z,7.80
2023-04-25T14:33:47.085Z,7.90
2023-04-25T14:36:15.226Z,8.00
2023-04-25T14:38:45.033Z,8.00
2023-04-25T14:41:14.384Z,8.00
2023-04-25T14:43:43.283Z,7.90
2023-04-25T14:46:15.443Z,7.90
2023-04-25T14:48:43.050Z,7.90
2023-04-25T14:51:15.457Z,7.90
2023-04-25T14:53:50.270Z,8.00
2023-04-25T14:56:19.033Z,8.00
2023-04-25T14:58:54.007Z,8.00
2023-04-25T15:01:21.850Z,8.00
2023-04-25T15:03:54.807Z,8.00
2023-04-25T15:06:37.843Z,8.00
2023-04-25T15:09:13.815Z,7.90
2023-04-25T15:11:46.780Z,8.00
2023-04-25T15:14:20.382Z,7.90
2023-04-25T15:16:58.147Z,7.90
2023-04-25T15:19:35.666Z,8.00
2023-04-25T15:22:10.975Z,8.00
2023-04-25T15:24:43.866Z,8.00
2023-04-25T15:27:12.757Z,8.00
2023-04-25T15:29:50.215Z,8.00
2023-04-25T15:32:17.414Z,8.10
2023-04-25T15:34:44.595Z,8.10
2023-04-25T15:37:12.021Z,8.20
2023-04-25T15:39:39.123Z,8.20
2023-04-25T15:42:06.327Z,8.20
2023-04-25T15:44:33.752Z,8.30
2023-04-25T15:47:02.213Z,8.30
2023-04-25T15:49:35.017Z,8.30
2023-04-25T15:52:05.201Z,8.20
2023-04-25T15:54:33.612Z,8.20
2023-04-25T15:57:03.427Z,8.20
2023-04-25T15:59:34.821Z,8.10
2023-04-25T16:02:04.542Z,8.00
2023-04-25T16:04:35.528Z,8.00
2023-04-25T16:07:03.668Z,7.90
2023-04-25T16:09:34.135Z,7.90
2023-04-25T16:12:01.361Z,7.90
2023-04-25T16:14:28.550Z,7.80
2023-04-25T16:16:55.812Z,7.80
2023-04-25T16:19:23.157Z,7.80
2023-04-25T16:21:50.365Z,7.80
2023-04-25T16:24:17.550Z,7.80
2023-04-25T16:26:45.371Z,7.80
2023-04-25T16:29:14.499Z,7.80
2023-04-25T16:31:42.111Z,7.70
2023-04-25T16:34:09.263Z,7.80
2023-04-25T16:36:36.769Z,7.70
2023-04-25T16:39:03.802Z,7.70
2023-04-25T16:41:30.910Z,7.70
2023-04-25T16:43:58.029Z,7.70
2023-04-25T16:46:25.117Z,7.80
2023-04-25T16:48:52.503Z,7.80
2023-04-25T16:51:19.804Z,7.80
2023-04-25T16:53:48.353Z,7.80
2023-04-25T16:56:15.309Z,7.70
2023-04-25T16:58:42.284Z,7.70
2023-04-25T17:01:09.336Z,7.70
2023-04-25T17:03:36.786Z,7.70
2023-04-25T17:06:04.367Z,7.70
2023-04-25T17:08:31.644Z,7.70
2023-04-25T17:11:00.748Z,7.70
2023-04-25T17:13:30.813Z,7.70
2023-04-25T17:15:58.579Z,7.70
2023-04-25T17:18:26.067Z,7.60
2023-04-25T17:20:53.025Z,7.60
2023-04-25T17:23:20.006Z,7.70
2023-04-25T17:25:47.002Z,7.60
2023-04-25T17:28:14.053Z,7.60
2023-04-25T17:30:42.248Z,7.70
2023-04-25T17:33:09.437Z,7.60
2023-04-25T17:35:40.448Z,7.70
2023-04-25T17:38:07.503Z,7.60
2023-04-25T17:40:34.549Z,7.60
2023-04-25T17:43:01.600Z,7.60
2023-04-25T17:45:34.338Z,7.60
2023-04-25T17:48:01.757Z,7.60
2023-04-25T17:50:28.839Z,7.70
2023-04-25T17:52:55.911Z,7.60
2023-04-25T17:55:23.674Z,7.70
2023-04-25T17:57:50.993Z,7.60
2023-04-25T18:00:18.545Z,7.60
2023-04-25T18:02:47.462Z,7.60
2023-04-25T18:05:15.515Z,7.60
2023-04-25T18:07:42.772Z,7.60
2023-04-25T18:10:11.450Z,7.60
2023-04-25T18:12:39.015Z,7.60
2023-04-25T18:15:06.860Z,7.50
2023-04-25T18:17:34.436Z,7.40
2023-04-25T18:20:01.816Z,7.40
2023-04-25T18:22:28.920Z,7.30
2023-04-25T18:24:56.075Z,7.20
2023-04-25T18:27:23.060Z,7.10
2023-04-25T18:29:50.039Z,7.00
2023-04-25T18:32:17.073Z,7.00
2023-04-25T18:34:46.005Z,6.90
2023-04-25T18:37:14.192Z,6.90
2023-04-25T18:39:41.574Z,6.90
2023-04-25T18:42:08.643Z,6.80
2023-04-25T18:44:39.715Z,6.80
2023-04-25T18:47:07.781Z,6.70
2023-04-25T18:49:34.814Z,6.70
2023-04-25T18:52:03.452Z,6.70
2023-04-25T18:54:31.870Z,6.70
2023-04-25T18:57:00.928Z,6.70
2023-04-25T18:59:27.998Z,6.70
2023-04-25T19:01:55.271Z,6.70
2023-04-25T19:04:22.393Z,6.60
2023-04-25T19:06:50.994Z,6.60
2023-04-25T19:09:18.286Z,6.60
2023-04-25T19:11:45.455Z,6.60
2023-04-25T19:14:13.364Z,6.60
2023-04-25T19:16:40.405Z,6.70
2023-04-25T19:19:09.025Z,6.70
2023-04-25T19:21:36.131Z,6.70
2023-04-25T19:24:03.784Z,6.70
2023-04-25T19:26:31.209Z,6.70
2023-04-25T19:29:05.848Z,6.70
2023-04-25T19:31:33.726Z,6.70
2023-04-25T19:34:00.911Z,6.70
2023-04-25T19:36:28.748Z,6.70
2023-04-25T19:39:01.892Z,6.70
2023-04-25T19:41:29.053Z,6.70
2023-04-25T19:43:56.026Z,6.70
2023-04-25T19:46:23.542Z,6.70
2023-04-25T19:48:50.555Z,6.70
2023-04-25T19:51:17.708Z,6.70
2023-04-25T19:53:44.661Z,6.70
2023-04-25T19:56:11.674Z,6.70
2023-04-25T19:58:38.723Z,6.70
2023-04-25T20:01:06.536Z,6.70
2023-04-25T20:03:33.860Z,6.70
2023-04-25T20:06:00.923Z,6.60
2023-04-25T20:08:28.067Z,6.60
2023-04-25T20:10:55.079Z,6.60
2023-04-25T20:13:22.654Z,6.60
2023-04-25T20:15:49.840Z,6.60
2023-04-25T20:18:16.919Z,6.50
2023-04-25T20:20:43.890Z,6.50
2023-04-25T20:23:11.761Z,6.40
2023-04-25T20:25:38.783Z,6.40
2023-04-25T20:28:06.086Z,6.40
2023-04-25T20:30:33.053Z,6.40
2023-04-25T20:33:03.835Z,6.40
2023-04-25T20:35:31.161Z,6.30
2023-04-25T20:37:58.355Z,6.40
2023-04-25T20:40:25.327Z,6.40
2023-04-25T20:42:52.397Z,6.40
2023-04-25T20:45:19.433Z,6.40
2023-04-25T20:47:46.524Z,6.40
2023-04-25T20:50:13.579Z,6.40
2023-04-25T20:52:41.588Z,6.40
2023-04-25T20:55:10.652Z,6.40
2023-04-25T20:57:37.836Z,6.40
2023-04-25T21:00:15.331Z,6.40
2023-04-25T21:02:42.633Z,6.30
2023-04-25T21:05:10.531Z,6.30
2023-04-25T21:07:37.794Z,6.30
2023-04-25T21:10:04.918Z,6.30
2023-04-25T21:12:32.023Z,6.30
2023-04-25T21:15:00.420Z,6.30
2023-04-25T21:17:27.627Z,6.30
2023-04-25T21:19:54.659Z,6.30
2023-04-25T21:22:21.668Z,6.40
2023-04-25T21:24:50.637Z,6.30
2023-04-25T21:27:17.640Z,6.30
2023-04-25T21:29:45.109Z,6.40
2023-04-25T21:32:16.532Z,6.40
2023-04-25T21:34:43.598Z,6.30
2023-04-25T21:37:10.761Z,6.30
2023-04-25T21:39:37.776Z,6.30
2023-04-25T21:42:08.748Z,6.30
2023-04-25T21:44:36.173Z,6.30
2023-04-25T21:47:04.531Z,6.20
2023-04-25T21:49:32.833Z,6.30
2023-04-25T21:52:00.187Z,6.20
2023-04-25T21:54:27.258Z,6.30
2023-04-25T21:56:54.281Z,6.20
2023-04-25T21:59:22.902Z,6.20
2023-04-25T22:01:50.079Z,6.20
2023-04-25T22:04:17.358Z,6.20
2023-04-25T22:06:45.825Z,6.20
2023-04-25T22:09:13.220Z,6.20
2023-04-25T22:11:40.919Z,6.20
2023-04-25T22:14:08.122Z,6.20
2023-04-25T22:16:35.518Z,6.30
2023-04-25T22:19:02.493Z,6.30
2023-04-25T22:21:29.461Z,6.30
2023-04-25T22:24:00.116Z,6.30
2023-04-25T22:26:27.124Z,6.30
2023-04-25T22:28:54.394Z,6.30
2023-04-25T22:31:21.568Z,6.30
2023-04-25T22:33:48.625Z,6.30
2023-04-25T22:36:15.716Z,6.30
2023-04-25T22:38:43.346Z,6.30
2023-04-25T22:41:10.303Z,6.30
2023-04-25T22:43:37.641Z,6.30
2023-04-25T22:46:04.651Z,6.30
2023-04-25T22:48:31.689Z,6.30
2023-04-25T22:51:02.570Z,6.30
2023-04-25T22:53:31.041Z,6.30
2023-04-25T22:55:58.067Z,6.30
2023-04-25T22:58:25.521Z,6.30
2023-04-25T23:00:53.140Z,6.30
2023-04-25T23:03:20.217Z,6.30
2023-04-25T23:05:47.439Z,6.30
2023-04-25T23:08:17.413Z,6.30
2023-04-25T23:10:44.722Z,6.30
2023-04-25T23:13:11.683Z,6.30
2023-04-25T23:15:38.666Z,6.30
2023-04-25T23:18:05.740Z,6.20
2023-04-25T23:20:33.614Z,6.30
2023-04-25T23:23:00.685Z,6.20
2023-04-25T23:25:28.219Z,6.20
2023-04-25T23:27:55.295Z,6.20
2023-04-25T23:30:22.378Z,6.20
2023-04-25T23:32:49.451Z,6.20
2023-04-25T23:35:16.458Z,6.20
2023-04-25T23:37:43.681Z,6.20
2023-04-25T23:40:12.446Z,6.20
2023-04-25T23:42:40.747Z,6.10
2023-04-25T23:45:08.274Z,6.10
2023-04-25T23:47:35.785Z,6.20
2023-04-25T23:50:03.301Z,6.10
2023-04-25T23:52:30.370Z,6.20
2023-04-25T23:54:57.641Z,6.20
2023-04-25T23:57:24.883Z,6.20
2023-04-25T23:59:52.014Z,6.20
